Central Nebraska Regional Airport
KGRI : now visible

Aeroporto :











RITROVATECI SU...

 
LOGIN :

Iscrizione | Disclaimer

   EN    FR    IT 

 









Sommario :    VFR   VFR Marginale   IFR   IFR Intensivo   IFR Molto Intensivo
Visibilità : 
Base nubi : 
>= 8 km
>= 3000ft
5 / 8 km
1000 / 3000 ft
1500m / 5 km
500 / 1000 ft
800 / 1500m
200 / 500 ft
< 800m
< 200 ft
Simboli :   Temporali  Nebbia  Neve Forte  Precipitazioni Forti  Vento > 20 kt







- Altitudine del aeroporto : 1847 ft
- Codice IATA : GRI


KGRI - Central Nebraska Regional

ULTIMO METAR :
  • 250353Z AUTO 12009KT 7SM OVC006 19/18 A3000 RMK AO2 RAB01E16 SLP152 P0001 T01940178

METARs OBSOLETI :
  • 250253Z AUTO 14008KT 10SM BKN006 OVC011 19/18 A3001 RMK AO2 LTG DSNT W CIG 004V010 SLP157 T01940178 58002
  • 250155Z AUTO 13010KT 5SM BR BKN007 BKN013 OVC019 19/18 A3001 RMK AO2 CIG 006V011 T01940178

TAF KGRI
Valido dal 25 a 02 ore il 26 a 00 ore UTC


250217Z 2502/2524 12010KT 6SM BR VCSH BKN007 OVC015
FM250500 14009KT 6SM BR OVC006
FM250900 14007KT 4SM BR OVC004
FM251500 15010KT P6SM OVC006
FM251800 15011KT P6SM BKN015
FM252100 15011KT P6SM BKN035
Nessun NOTAM noto per questo aeroporto.



MetMap, La meteo Aeronautica in un colpo d'occhio ! - Copyright ORBIFLY Dicembre 2007 - Disclaimer

ORBIFLY MET'MAP TEAM :

Programmazione e sviluppo : Alexandra Zaïnal
Concezione e sviluppo : Baudouin d'Aumeries
Co-Programmazione e sviluppo : Marc-Olivier Méhu
Supporto tecnico e logistico : Manuel Goepfert
Aiuto per la traduzione : Arnaldo La Scala

Contatto : metmap@orbifly.com




FONTI E CREDITI :

   NOAA       Earth
Advisory